Time;durP1;ratioP1;P1;durP2;ratioP2;P2;SDS_P1;SDS_P2;PMS_P1;PMS_P2;Temp;Humidity;BMP_temperature;BMP_pressure;BME280_temperature;BME280_humidity;BME280_pressure;Samples;Min_cycle;Max_cycle;Signal;HPM_P1;HPM_P2
2023/01/02 00:01:14;;;;;;;6.47;4.93;;;;;;;-17.88;71.79;99966.03;4833199;28;20086;-66
2023/01/02 00:03:47;;;;;;;7.68;4.50;;;;;;;-17.65;71.82;99965.56;4812183;28;20043;-65
2023/01/02 00:06:35;;;;;;;7.10;4.60;;;;;;;-17.54;71.17;99964.00;4856438;28;20118;-67
2023/01/02 00:09:22;;;;;;;9.77;6.10;;;;;;;-17.74;70.76;99954.72;4848198;28;20038;-65
2023/01/02 00:12:12;;;;;;;8.38;5.95;;;;;;;-17.68;70.91;99970.28;4807941;28;20046;-65
2023/01/02 00:14:45;;;;;;;10.20;6.00;;;;;;;-17.70;71.11;99976.75;4824472;28;20333;-62
2023/01/02 00:17:37;;;;;;;8.20;6.10;;;;;;;-17.59;71.18;99977.69;4846888;28;20048;-64
2023/01/02 00:20:21;;;;;;;7.60;5.95;;;;;;;-17.43;71.26;99984.19;4827451;28;20096;-65
2023/01/02 00:23:08;;;;;;;9.60;5.93;;;;;;;-17.34;70.94;99980.75;4817813;28;20114;-64
2023/01/02 00:25:49;;;;;;;9.10;6.72;;;;;;;-17.22;70.71;99969.34;4785792;28;20043;-63
2023/01/02 00:28:42;;;;;;;10.50;6.47;;;;;;;-17.15;70.46;99969.13;4790324;28;20123;-63
2023/01/02 00:34:30;;;;;;;8.77;6.25;;;;;;;-16.88;69.69;99967.28;4823243;28;20315;-66
2023/01/02 00:37:12;;;;;;;8.20;5.40;;;;;;;-16.73;69.71;99966.94;4882110;28;20050;-66
2023/01/02 00:39:52;;;;;;;6.70;4.95;;;;;;;-16.46;69.41;99976.69;4835000;28;20060;-64
2023/01/02 00:42:44;;;;;;;14.38;8.10;;;;;;;-16.34;69.08;99955.22;4863899;28;20050;-65
2023/01/02 00:45:25;;;;;;;7.65;5.47;;;;;;;-15.79;69.11;99969.81;4836289;28;20053;-67
2023/01/02 00:51:16;;;;;;;8.45;5.60;;;;;;;-15.32;67.95;99985.28;4813543;28;20344;-67
2023/01/02 00:53:58;;;;;;;10.02;5.63;;;;;;;-15.01;67.65;99952.66;4782277;28;20063;-66
2023/01/02 00:56:45;;;;;;;7.80;4.95;;;;;;;-14.78;66.89;99960.34;4837804;28;20259;-68
2023/01/02 00:59:44;;;;;;;8.02;5.00;;;;;;;-14.36;66.87;99946.81;4845770;28;20052;-66
2023/01/02 01:02:42;;;;;;;7.03;4.47;;;;;;;-14.13;65.92;99952.72;4830825;28;20042;-67
2023/01/02 01:05:20;;;;;;;8.68;4.53;;;;;;;-13.88;65.34;99949.53;4818136;28;20356;-68
2023/01/02 01:08:06;;;;;;;9.13;5.35;;;;;;;-13.66;64.47;99950.38;4861840;28;20046;-68
2023/01/02 01:10:52;;;;;;;9.15;4.80;;;;;;;-13.61;63.69;99940.69;4844197;28;20039;-68
2023/01/02 01:13:39;;;;;;;12.45;4.75;;;;;;;-13.42;63.30;99945.44;4809664;28;20354;-69
2023/01/02 01:16:20;;;;;;;10.40;5.30;;;;;;;-13.45;62.71;99907.47;4848760;28;20080;-66
2023/01/02 01:19:04;;;;;;;8.18;5.10;;;;;;;-12.93;61.92;99936.31;4811221;28;20624;-68
2023/01/02 01:22:16;;;;;;;9.10;4.60;;;;;;;-12.80;60.96;99936.44;4831955;28;20133;-68
2023/01/02 01:25:05;;;;;;;12.48;5.30;;;;;;;-12.49;60.68;99926.88;4818252;28;20131;-68
2023/01/02 01:27:45;;;;;;;16.73;6.55;;;;;;;-12.34;60.01;99924.53;4774356;28;20046;-68
2023/01/02 01:30:21;;;;;;;12.23;5.70;;;;;;;-12.35;58.87;99920.28;4799044;28;20070;-69
2023/01/02 01:32:56;;;;;;;8.35;4.93;;;;;;;-12.48;58.02;99912.63;4834299;28;20038;-68
2023/01/02 01:35:44;;;;;;;11.43;5.28;;;;;;;-12.50;57.61;99906.63;4834686;28;20130;-69
2023/01/02 01:38:35;;;;;;;9.40;5.15;;;;;;;-12.45;56.99;99892.72;4799066;28;20057;-69
2023/01/02 01:41:16;;;;;;;12.02;5.93;;;;;;;-12.26;57.12;99890.66;4815420;28;20046;-69
2023/01/02 01:44:50;;;;;;;25.27;9.40;;;;;;;-12.39;57.03;99852.84;4792839;28;20325;-69
2023/01/02 01:47:44;;;;;;;10.98;6.05;;;;;;;-12.17;56.92;99891.28;4837841;28;20531;-69
2023/01/02 01:53:35;;;;;;;10.63;5.03;;;;;;;-12.13;56.38;99876.38;4855809;28;20086;-69
2023/01/02 01:56:25;;;;;;;8.02;4.65;;;;;;;-12.11;56.15;99864.78;4847629;28;20054;-69
2023/01/02 01:59:22;;;;;;;11.60;5.97;;;;;;;-11.98;56.32;99872.38;4768470;28;20050;-70
2023/01/02 02:02:13;;;;;;;12.68;5.53;;;;;;;-11.92;54.92;99866.88;4845647;28;20407;-68
2023/01/02 02:05:06;;;;;;;12.32;6.53;;;;;;;-12.08;53.24;99859.94;4835651;28;20131;-70
2023/01/02 02:08:09;;;;;;;13.07;6.13;;;;;;;-11.87;53.08;99856.31;4807878;28;20050;-70
2023/01/02 02:11:05;;;;;;;11.07;5.13;;;;;;;-11.97;51.70;99848.94;4810286;28;20053;-70
2023/01/02 02:14:02;;;;;;;8.73;5.32;;;;;;;-12.07;51.37;99844.06;4828758;28;20043;-69
2023/01/02 02:17:06;;;;;;;9.48;5.43;;;;;;;-12.16;50.89;99847.69;4835807;28;20065;-71
2023/01/02 02:20:24;;;;;;;10.55;5.80;;;;;;;-12.06;51.80;99838.25;4833741;28;20070;-70
2023/01/02 02:23:49;;;;;;;11.85;5.32;;;;;;;-12.20;51.18;99835.69;4812663;28;20059;-69
2023/01/02 02:27:03;;;;;;;12.13;5.85;;;;;;;-12.34;51.64;99831.38;4820515;28;20584;-71
2023/01/02 02:30:15;;;;;;;8.90;5.13;;;;;;;-12.41;50.63;99834.25;4740033;29;20084;-71
2023/01/02 02:33:30;;;;;;;9.27;4.95;;;;;;;-12.45;50.16;99829.81;4701898;29;20510;-71
2023/01/02 02:36:17;;;;;;;13.18;5.75;;;;;;;-12.51;50.22;99826.84;4704999;29;20232;-69
2023/01/02 02:39:04;;;;;;;9.05;5.03;;;;;;;-12.49;50.59;99821.16;4717935;29;20113;-70
2023/01/02 02:45:04;;;;;;;9.93;5.47;;;;;;;-12.85;50.82;99809.47;4684744;29;20064;-73
2023/01/02 02:48:12;;;;;;;11.00;5.78;;;;;;;-12.67;52.29;99815.75;4710704;29;20155;-72
2023/01/02 02:54:00;;;;;;;10.85;5.20;;;;;;;-12.64;51.92;99810.91;4706406;29;20072;-72
2023/01/02 02:57:10;;;;;;;11.20;4.88;;;;;;;-12.48;52.15;99811.94;4678276;29;20470;-70
2023/01/02 03:00:35;;;;;;;12.23;5.47;;;;;;;-12.26;52.36;99805.06;4712289;29;20105;-69
2023/01/02 03:03:39;;;;;;;10.25;6.00;;;;;;;-12.22;51.80;99791.91;4714529;29;20085;-69
2023/01/02 03:06:45;;;;;;;11.27;6.13;;;;;;;-12.31;50.88;99793.81;4699914;29;20048;-68
2023/01/02 03:09:42;;;;;;;12.30;5.70;;;;;;;-12.30;51.63;99777.94;4813867;28;20083;-69
2023/01/02 03:12:30;;;;;;;12.30;6.00;;;;;;;-12.28;52.26;99778.94;4781047;28;20125;-69
2023/01/02 03:15:30;;;;;;;;;;;;;;;-12.20;51.90;99785.34;4801495;28;20046;-70
2023/01/02 03:18:16;;;;;;;11.30;5.43;;;;;;;-12.14;52.41;99778.94;4830572;28;19935;-67
2023/01/02 03:21:05;;;;;;;11.63;5.65;;;;;;;-12.20;52.27;99775.25;4815933;28;20046;-70
2023/01/02 03:23:52;;;;;;;13.43;5.80;;;;;;;-12.05;53.15;99779.56;4838395;28;20054;-68
2023/01/02 03:29:36;;;;;;;15.60;5.97;;;;;;;-12.12;52.16;99759.78;4758182;29;20040;-71
2023/01/02 03:32:21;;;;;;;13.23;6.28;;;;;;;-12.05;51.60;99754.38;4733841;29;20637;-71
2023/01/02 03:38:00;;;;;;;13.38;6.03;;;;;;;-11.95;51.21;99746.63;4760963;29;20062;-70
2023/01/02 03:41:04;;;;;;;12.43;6.65;;;;;;;-12.05;49.89;99744.28;4747106;29;20232;-71
2023/01/02 03:44:05;;;;;;;16.63;6.45;;;;;;;-11.94;50.02;99745.84;4766574;29;20041;-69
2023/01/02 03:46:44;;;;;;;13.13;6.30;;;;;;;-11.83;49.35;99742.34;4756091;29;20071;-70
2023/01/02 03:49:39;;;;;;;15.10;7.07;;;;;;;-11.83;49.91;99749.91;4783573;28;20055;-70
2023/01/02 03:52:35;;;;;;;12.98;6.88;;;;;;;-11.54;50.15;99745.81;4736039;29;20044;-71
2023/01/02 03:55:23;;;;;;;20.13;7.38;;;;;;;-11.32;49.79;99718.63;4763580;29;20058;-70
2023/01/02 03:58:08;;;;;;;19.00;7.82;;;;;;;-11.19;49.87;99704.25;4784375;29;20502;-72
2023/01/02 04:01:03;;;;;;;17.30;7.88;;;;;;;-10.80;49.59;99735.19;4759760;29;20504;-70
2023/01/02 04:03:53;;;;;;;14.38;7.43;;;;;;;-10.59;48.97;99731.38;4757205;29;20057;-68
2023/01/02 04:06:50;;;;;;;15.02;6.65;;;;;;;-10.42;49.19;99730.72;4794321;28;20043;-72
2023/01/02 04:09:27;;;;;;;13.43;6.80;;;;;;;-10.67;48.67;99733.47;4753171;28;21798;-71
2023/01/02 04:12:19;;;;;;;15.13;6.82;;;;;;;-11.07;48.56;99692.38;4837524;28;20058;-71
2023/01/02 04:15:21;;;;;;;10.07;5.72;;;;;;;-10.98;49.41;99725.72;4807068;28;20878;-74
2023/01/02 04:18:18;;;;;;;12.10;5.93;;;;;;;-11.17;47.55;99727.91;4832245;28;20593;-68
2023/01/02 04:21:11;;;;;;;11.70;5.85;;;;;;;-11.31;47.38;99735.50;4797642;28;20110;-71
2023/01/02 04:24:03;;;;;;;12.25;6.00;;;;;;;-11.33;48.26;99731.13;4795081;28;20061;-71
2023/01/02 04:26:48;;;;;;;12.45;5.65;;;;;;;-11.27;48.31;99733.19;4827488;28;20054;-69
2023/01/02 04:29:28;;;;;;;12.75;6.35;;;;;;;-11.37;47.87;99730.09;4797563;28;20047;-68
2023/01/02 04:32:06;;;;;;;10.43;5.47;;;;;;;-11.34;47.91;99725.22;4842735;28;20328;-70
2023/01/02 04:34:53;;;;;;;10.07;5.10;;;;;;;-11.37;47.75;99717.47;4826480;29;20066;-70
2023/01/02 04:37:33;;;;;;;12.40;5.90;;;;;;;-11.42;47.87;99706.22;4839018;28;20055;-70
2023/01/02 04:43:28;;;;;;;12.00;6.25;;;;;;;-11.34;47.89;99710.09;4790321;28;20051;-69
2023/01/02 04:46:10;;;;;;;11.10;5.95;;;;;;;-11.43;48.11;99709.56;4841898;28;20125;-67
2023/01/02 04:48:46;;;;;;;12.35;5.50;;;;;;;-11.39;48.22;99706.41;4853908;28;20051;-68
2023/01/02 04:51:37;;;;;;;12.85;6.03;;;;;;;-11.23;48.90;99699.78;4837479;28;20085;-69
2023/01/02 04:54:21;;;;;;;12.32;6.00;;;;;;;-11.16;48.90;99684.25;4848105;28;20152;-69
2023/01/02 04:57:04;;;;;;;23.85;10.60;;;;;;;-11.24;49.38;99700.56;4834883;28;20050;-71
2023/01/02 04:59:50;;;;;;;23.15;10.30;;;;;;;-11.30;49.84;99701.94;4834444;28;20050;-67
2023/01/02 05:02:43;;;;;;;19.45;9.55;;;;;;;-11.17;50.17;99698.50;4831761;28;20125;-67
2023/01/02 05:08:15;;;;;;;15.05;7.47;;;;;;;-11.10;50.40;99692.19;4858266;28;20051;-68
2023/01/02 05:10:53;;;;;;;16.25;7.55;;;;;;;-11.11;50.71;99692.97;4827192;28;20374;-69
2023/01/02 05:16:27;;;;;;;32.60;12.15;;;;;;;-10.17;57.98;99691.69;4858546;28;20220;-70
2023/01/02 05:19:07;;;;;;;15.35;7.72;;;;;;;-10.39;56.08;99693.81;4846423;28;20070;-69
2023/01/02 05:24:50;;;;;;;15.18;6.25;;;;;;;-10.95;56.01;99641.78;4800114;28;20272;-70
2023/01/02 05:27:27;;;;;;;11.52;5.95;;;;;;;-10.65;56.20;99705.78;4821893;28;20142;-71
2023/01/02 05:30:07;;;;;;;15.88;7.05;;;;;;;-10.70;56.17;99702.13;4790627;28;20865;-68
2023/01/02 05:32:50;;;;;;;10.50;6.25;;;;;;;-10.92;54.48;99697.47;4710296;28;20450;-68
2023/01/02 05:38:47;;;;;;;12.43;5.80;;;;;;;-11.18;51.88;99700.94;4783919;28;20055;-67
2023/01/02 05:41:34;;;;;;;15.60;6.47;;;;;;;-11.51;50.23;99700.63;4806353;28;20098;-69
2023/01/02 05:44:14;;;;;;;15.63;5.70;;;;;;;-11.79;49.42;99708.97;4801848;28;20423;-68
2023/01/02 05:47:06;;;;;;;13.32;5.93;;;;;;;-12.07;49.33;99686.25;4851188;28;20058;-69
2023/01/02 05:49:53;;;;;;;12.80;5.65;;;;;;;-12.10;49.17;99710.34;4813378;28;20130;-68
2023/01/02 05:52:41;;;;;;;13.18;6.07;;;;;;;-12.16;48.75;99706.66;4849738;28;20055;-69
2023/01/02 05:55:21;;;;;;;9.57;5.43;;;;;;;-12.21;48.81;99703.00;4821529;28;20046;-69
2023/01/02 05:58:21;;;;;;;13.73;5.78;;;;;;;-12.18;48.78;99713.28;4861530;28;20081;-69
2023/01/02 06:01:14;;;;;;;16.33;6.93;;;;;;;-12.27;49.08;99707.63;4820063;28;20053;-67
2023/01/02 06:04:03;;;;;;;25.80;10.85;;;;;;;-12.40;49.70;99679.94;4802940;28;20047;-69
2023/01/02 06:06:41;;;;;;;25.25;11.55;;;;;;;-12.66;49.74;99661.47;4843575;28;20048;-67
2023/01/02 06:09:39;;;;;;;27.38;12.20;;;;;;;-12.43;50.14;99722.50;4814276;28;20054;-69
2023/01/02 06:12:22;;;;;;;20.30;9.77;;;;;;;-12.57;51.00;99721.63;4818020;28;20039;-68
2023/01/02 06:15:01;;;;;;;27.13;10.77;;;;;;;-12.67;51.95;99720.13;4838972;28;20069;-69
2023/01/02 06:18:00;;;;;;;20.88;9.82;;;;;;;-12.86;52.96;99727.22;4827973;28;20489;-67
2023/01/02 06:20:40;;;;;;;18.63;8.25;;;;;;;-13.02;53.90;99726.97;4811919;28;20071;-67
2023/01/02 06:23:13;;;;;;;;;;;;;;;-13.12;54.80;99718.78;4812776;28;20060;-68
2023/01/02 06:29:14;;;;;;;21.30;9.00;;;;;;;-13.24;56.82;99722.97;4851388;28;20054;-70
2023/01/02 06:32:05;;;;;;;21.67;9.30;;;;;;;-13.44;57.86;99708.19;4853281;28;20433;-69
2023/01/02 06:34:58;;;;;;;20.88;9.27;;;;;;;-13.44;59.60;99728.31;4839055;28;20378;-69
2023/01/02 06:37:36;;;;;;;18.83;7.85;;;;;;;-14.11;60.59;99627.38;4836439;28;20057;-68
2023/01/02 06:40:26;;;;;;;25.10;10.50;;;;;;;-13.54;61.78;99730.16;4842828;28;20042;-69
2023/01/02 06:43:32;;;;;;;40.80;14.52;;;;;;;-13.62;62.59;99718.72;4850903;28;20061;-67
2023/01/02 06:46:18;;;;;;;47.75;16.65;;;;;;;-13.65;63.18;99726.03;4838060;28;20046;-68
2023/01/02 06:49:01;;;;;;;65.50;20.00;;;;;;;-14.19;63.70;99646.03;4835563;28;20351;-68
2023/01/02 06:51:57;;;;;;;81.90;25.95;;;;;;;-13.88;64.06;99718.50;4827770;28;20054;-68
2023/01/02 06:54:39;;;;;;;78.82;25.38;;;;;;;-14.00;64.61;99711.88;4850846;28;20058;-68
2023/01/02 06:57:29;;;;;;;69.68;23.63;;;;;;;-14.01;65.28;99706.72;4844565;28;20113;-68
2023/01/02 07:00:36;;;;;;;56.17;19.52;;;;;;;-14.35;65.62;99665.03;4830795;28;20059;-67
2023/01/02 07:03:23;;;;;;;73.05;23.75;;;;;;;-14.11;65.96;99710.22;4839710;28;20055;-67
2023/01/02 07:06:09;;;;;;;79.65;24.92;;;;;;;-14.38;66.51;99653.88;4838145;28;20051;-68
2023/01/02 07:09:01;;;;;;;88.73;23.90;;;;;;;-13.99;67.00;99711.09;4817441;28;20051;-68
2023/01/02 07:11:53;;;;;;;105.60;28.58;;;;;;;-13.94;66.93;99714.78;4845691;28;20720;-68
2023/01/02 07:14:56;;;;;;;74.07;22.08;;;;;;;-13.86;67.08;99724.50;4853664;28;20050;-67
2023/01/02 07:18:41;;;;;;;87.63;23.65;;;;;;;-13.88;67.20;99713.47;4822303;28;20050;-67
2023/01/02 07:21:42;;;;;;;53.72;17.17;;;;;;;-13.94;67.73;99709.78;4811085;28;20050;-68
2023/01/02 07:28:13;;;;;;;15.35;7.93;;;;;;;-14.06;68.05;99708.91;4828998;28;20066;-68
2023/01/02 07:30:49;;;;;;;13.30;7.57;;;;;;;-14.15;68.15;99703.22;4834655;28;20046;-68
2023/01/02 07:33:41;;;;;;;15.25;8.15;;;;;;;-14.24;68.64;99682.50;4865152;28;20098;-67
2023/01/02 07:36:16;;;;;;;21.48;10.13;;;;;;;-13.92;69.07;99702.38;4873184;28;20530;-68
2023/01/02 07:39:09;;;;;;;23.42;11.88;;;;;;;-13.85;68.89;99703.66;4825867;28;20458;-68
2023/01/02 07:41:56;;;;;;;31.25;15.70;;;;;;;-13.72;68.97;99711.31;4828316;28;20054;-68
2023/01/02 07:44:39;;;;;;;42.88;15.60;;;;;;;-13.64;68.90;99716.88;4839867;28;20074;-67
2023/01/02 07:50:15;;;;;;;49.08;20.20;;;;;;;-13.53;68.85;99714.31;4831843;28;20050;-68
2023/01/02 07:52:58;;;;;;;41.05;18.13;;;;;;;-13.55;68.48;99715.88;4866387;28;20255;-68
2023/01/02 07:55:38;;;;;;;27.48;11.55;;;;;;;-13.71;68.46;99703.00;4815689;28;20053;-67
2023/01/02 07:58:13;;;;;;;31.27;14.10;;;;;;;-13.59;68.30;99725.59;4828867;28;20045;-68
2023/01/02 08:00:54;;;;;;;26.55;12.30;;;;;;;-13.56;68.61;99719.13;4872351;28;20043;-67
2023/01/02 08:03:37;;;;;;;16.67;8.85;;;;;;;-13.52;68.44;99716.06;4843847;28;20055;-68
2023/01/02 08:06:36;;;;;;;14.65;8.25;;;;;;;-13.54;67.85;99716.72;4850071;28;20054;-67
2023/01/02 08:09:15;;;;;;;14.35;7.05;;;;;;;-13.53;67.47;99719.34;4837177;28;20053;-68
2023/01/02 08:11:46;;;;;;;15.70;7.00;;;;;;;-13.50;67.31;99714.56;4833809;28;20605;-68
2023/01/02 08:14:32;;;;;;;15.85;7.10;;;;;;;-13.34;67.00;99720.63;4851842;28;20055;-68
2023/01/02 08:17:30;;;;;;;;;;;;;;;;;;;;;
2023/01/02 08:20:11;;;;;;;18.40;7.03;;;;;;;-14.00;66.54;99628.09;4829112;28;20061;-67
2023/01/02 08:25:41;;;;;;;34.35;12.35;;;;;;;-13.63;67.15;99731.16;4823372;28;20055;-68
2023/01/02 08:28:26;;;;;;;;;;;;;;;;;;;;;
2023/01/02 08:31:05;;;;;;;26.27;10.52;;;;;;;-13.60;67.43;99741.41;4804671;28;20056;-68
2023/01/02 08:33:44;;;;;;;23.77;10.20;;;;;;;-13.53;67.31;99741.94;4821549;28;20122;-69
2023/01/02 08:36:25;;;;;;;25.65;9.60;;;;;;;-13.48;67.18;99748.19;4806513;28;20051;-69
2023/01/02 08:39:09;;;;;;;21.38;9.48;;;;;;;-13.45;67.21;99746.63;4794353;28;20126;-69
2023/01/02 08:41:47;;;;;;;22.98;9.20;;;;;;;-13.51;67.15;99750.47;4807188;28;20056;-69
2023/01/02 08:44:28;;;;;;;18.92;7.72;;;;;;;-13.54;67.35;99750.28;4814071;28;20046;-69
2023/01/02 08:47:14;;;;;;;19.80;8.35;;;;;;;-13.67;68.01;99755.19;4797010;28;20129;-69
2023/01/02 08:50:04;;;;;;;17.85;6.95;;;;;;;-13.86;68.14;99759.69;4814410;28;20054;-68
2023/01/02 08:52:55;;;;;;;13.70;6.82;;;;;;;-14.09;68.56;99732.94;4818218;28;20130;-68
2023/01/02 08:55:51;;;;;;;12.10;6.78;;;;;;;-14.17;69.51;99739.91;4799842;28;20941;-68
2023/01/02 08:58:45;;;;;;;10.73;5.90;;;;;;;-14.06;70.37;99754.09;4810922;28;20058;-68
2023/01/02 09:01:25;;;;;;;13.75;5.95;;;;;;;-14.12;71.04;99753.66;4815105;28;20103;-69
2023/01/02 09:04:14;;;;;;;13.75;6.13;;;;;;;-14.21;71.45;99747.97;4807596;28;20096;-68
2023/01/02 09:06:50;;;;;;;83.25;22.30;;;;;;;-14.38;72.20;99745.09;4815560;28;20512;-68
2023/01/02 09:09:33;;;;;;;21.90;9.60;;;;;;;-14.51;73.03;99736.56;4831392;28;20288;-68
2023/01/02 09:12:45;;;;;;;27.38;11.02;;;;;;;-14.52;73.57;99750.75;4807669;28;20084;-68
2023/01/02 09:15:48;;;;;;;99.53;28.95;;;;;;;-14.61;74.26;99743.44;4790250;28;20155;-68
2023/01/02 09:21:34;;;;;;;22.20;8.38;;;;;;;-14.62;74.87;99733.31;4828866;28;20051;-68
2023/01/02 09:24:19;;;;;;;14.75;7.15;;;;;;;-14.46;75.11;99741.16;4820643;28;21197;-68
2023/01/02 09:26:58;;;;;;;18.45;7.88;;;;;;;-14.49;74.89;99752.59;4835691;28;20050;-68
2023/01/02 09:29:34;;;;;;;21.45;9.25;;;;;;;-14.51;74.99;99742.44;4830002;28;20067;-68
2023/01/02 09:32:12;;;;;;;20.00;8.65;;;;;;;-14.46;75.32;99741.16;4811097;28;20051;-68
2023/01/02 09:34:56;;;;;;;26.17;8.88;;;;;;;-14.51;75.13;99737.44;4817557;28;20433;-68
2023/01/02 09:40:28;;;;;;;27.10;11.00;;;;;;;-14.50;75.57;99754.25;4814736;28;20074;-69
2023/01/02 09:43:21;;;;;;;24.30;11.27;;;;;;;-14.46;75.92;99741.16;4854167;28;20110;-68
2023/01/02 09:48:49;;;;;;;19.95;8.70;;;;;;;-14.34;75.44;99752.09;4860468;28;20069;-68
2023/01/02 09:51:27;;;;;;;26.25;9.68;;;;;;;-14.31;75.73;99753.06;4829710;28;20056;-69
2023/01/02 09:54:14;;;;;;;35.30;10.52;;;;;;;-14.36;75.41;99748.59;4853161;28;20518;-69
2023/01/02 09:57:27;;;;;;;58.88;21.40;;;;;;;-14.40;75.64;99749.13;4848659;28;20395;-69
2023/01/02 10:00:15;;;;;;;33.72;14.80;;;;;;;-14.31;76.07;99730.50;4848042;28;20070;-70
2023/01/02 10:03:14;;;;;;;28.88;10.10;;;;;;;-14.18;75.60;99763.25;4843176;28;20054;-69
2023/01/02 10:09:20;;;;;;;22.50;9.15;;;;;;;-14.46;75.86;99746.16;4835278;28;20298;-69
2023/01/02 10:12:05;;;;;;;22.20;9.43;;;;;;;-14.59;75.92;99726.00;4852503;28;20074;-69
2023/01/02 10:15:05;;;;;;;20.65;7.93;;;;;;;-14.41;76.43;99747.38;4857309;28;20042;-69
2023/01/02 10:17:47;;;;;;;22.30;8.48;;;;;;;-14.25;76.50;99745.97;4828821;28;20046;-68
2023/01/02 10:20:33;;;;;;;24.30;8.68;;;;;;;-14.17;76.45;99744.91;4834039;28;20086;-69
2023/01/02 10:23:16;;;;;;;18.08;7.40;;;;;;;-14.58;76.05;99690.09;4827908;28;20042;-68
2023/01/02 10:26:03;;;;;;;15.27;6.95;;;;;;;-14.15;76.12;99755.91;4829608;28;20372;-69
2023/01/02 10:28:48;;;;;;;16.65;6.32;;;;;;;-14.06;75.91;99759.09;4837614;28;20398;-69
2023/01/02 10:31:34;;;;;;;17.88;6.85;;;;;;;-13.96;76.31;99755.63;4853459;28;20050;-68
2023/01/02 10:34:26;;;;;;;12.00;6.38;;;;;;;-15.10;75.68;99575.97;4836337;28;20053;-69
2023/01/02 10:37:28;;;;;;;13.55;6.53;;;;;;;-13.87;75.87;99765.47;4828638;28;20066;-69
2023/01/02 10:40:09;;;;;;;16.15;6.75;;;;;;;-13.76;75.88;99762.94;4849026;28;20082;-69
2023/01/02 10:43:06;;;;;;;12.35;6.10;;;;;;;-13.67;75.58;99760.22;4844319;28;20050;-68
2023/01/02 10:45:48;;;;;;;16.73;6.30;;;;;;;-13.76;75.52;99754.53;4846669;28;20126;-68
2023/01/02 10:48:42;;;;;;;17.83;6.63;;;;;;;-13.69;75.58;99766.78;4816989;28;20068;-69
2023/01/02 10:51:36;;;;;;;14.40;6.65;;;;;;;-13.89;75.12;99756.94;4879698;28;20178;-69
2023/01/02 10:58:28;;;;;;;14.68;6.60;;;;;;;-14.21;75.92;99758.00;4826615;28;20089;-69
2023/01/02 11:01:21;;;;;;;21.90;6.43;;;;;;;-14.19;75.82;99771.53;4849217;28;20093;-69
2023/01/02 11:04:18;;;;;;;15.95;6.75;;;;;;;-14.34;76.06;99771.28;4823883;28;20054;-69
2023/01/02 11:07:32;;;;;;;14.05;6.43;;;;;;;-14.47;76.46;99769.50;4847622;28;20159;-69
2023/01/02 11:10:28;;;;;;;16.83;7.65;;;;;;;-14.29;76.89;99779.16;4823364;28;20046;-69
2023/01/02 11:13:07;;;;;;;11.25;6.75;;;;;;;-14.47;76.73;99774.53;4850084;28;20090;-69
2023/01/02 11:16:11;;;;;;;16.52;6.05;;;;;;;-14.50;76.92;99774.31;4840576;28;21119;-69
2023/01/02 11:19:06;;;;;;;16.23;7.22;;;;;;;-14.49;76.69;99795.25;4843885;28;20107;-69
2023/01/02 11:21:51;;;;;;;14.90;7.57;;;;;;;-14.60;76.78;99791.94;4856455;28;20595;-69
2023/01/02 11:24:34;;;;;;;13.95;6.57;;;;;;;-14.62;76.91;99798.50;4859332;28;20080;-69
2023/01/02 11:27:18;;;;;;;17.02;6.82;;;;;;;-14.60;77.09;99791.94;4828689;28;20143;-68
2023/01/02 11:33:19;;;;;;;18.52;8.82;;;;;;;-14.49;77.21;99778.56;4830740;28;20619;-68
2023/01/02 11:35:56;;;;;;;14.10;6.88;;;;;;;-14.33;76.85;99803.13;4743030;28;20042;-69
2023/01/02 11:38:51;;;;;;;12.80;6.90;;;;;;;-14.35;76.75;99785.47;4858030;28;20065;-69
2023/01/02 11:45:30;;;;;;;28.52;11.85;;;;;;;-14.35;75.45;99798.03;4846254;28;20073;-68
2023/01/02 11:48:30;;;;;;;21.52;8.70;;;;;;;-14.52;75.20;99805.94;4819270;28;20050;-68
2023/01/02 11:51:18;;;;;;;23.08;8.85;;;;;;;-14.72;75.36;99812.00;4781764;28;20078;-68
2023/01/02 11:54:09;;;;;;;19.65;8.05;;;;;;;-14.66;76.24;99816.59;4813676;28;20050;-69
2023/01/02 11:56:53;;;;;;;20.85;6.65;;;;;;;-14.82;75.66;99805.41;4849910;28;20271;-68
2023/01/02 11:59:43;;;;;;;13.88;5.82;;;;;;;-14.84;75.52;99819.44;4835356;28;20326;-69
2023/01/02 12:02:38;;;;;;;13.90;6.03;;;;;;;-14.87;75.48;99831.75;4846831;28;20160;-68
2023/01/02 12:05:41;;;;;;;13.90;5.40;;;;;;;-14.92;75.42;99818.00;4848297;28;20050;-69
2023/01/02 12:08:35;;;;;;;10.25;4.63;;;;;;;-15.00;74.78;99814.00;4776309;28;20146;-68
2023/01/02 12:11:30;;;;;;;8.65;4.65;;;;;;;-14.84;74.96;99819.44;4808822;28;20038;-68
2023/01/02 12:14:20;;;;;;;8.20;4.35;;;;;;;-14.78;74.52;99819.91;4855692;28;20331;-68
2023/01/02 12:17:11;;;;;;;9.00;4.88;;;;;;;-14.78;73.88;99817.41;4835353;28;20073;-68
2023/01/02 12:20:07;;;;;;;8.55;4.63;;;;;;;-14.85;73.57;99820.22;4884414;28;20053;-68
2023/01/02 12:23:27;;;;;;;8.68;4.28;;;;;;;-14.94;73.00;99814.50;4846807;28;20096;-68
2023/01/02 12:26:11;;;;;;;7.85;4.18;;;;;;;-14.98;72.93;99817.50;4830590;28;20077;-68
2023/01/02 12:29:25;;;;;;;7.10;4.22;;;;;;;-14.96;72.82;99808.47;4813139;28;20086;-68
2023/01/02 12:36:27;;;;;;;7.82;4.00;;;;;;;-15.01;72.48;99807.25;4754936;29;20048;-69
2023/01/02 12:39:39;;;;;;;7.82;4.15;;;;;;;-15.09;71.90;99803.28;4743528;29;20057;-69
2023/01/02 12:43:06;;;;;;;5.65;3.38;;;;;;;-15.34;71.58;99808.91;4675780;29;20066;-68
2023/01/02 12:45:59;;;;;;;4.40;3.35;;;;;;;-15.63;72.21;99805.75;4705435;29;20194;-68
2023/01/02 12:52:31;;;;;;;3.47;2.97;;;;;;;-15.91;72.56;99808.59;4676924;29;20110;-69
2023/01/02 12:55:30;;;;;;;10.25;4.43;;;;;;;-15.96;73.02;99809.84;4683664;29;20750;-69
2023/01/02 12:58:33;;;;;;;5.45;4.00;;;;;;;-15.98;72.53;99826.38;4680176;29;20054;-69
2023/01/02 13:01:32;;;;;;;9.02;4.03;;;;;;;-15.98;72.13;99831.38;4696084;29;21672;-68
2023/01/02 13:04:27;;;;;;;6.65;3.92;;;;;;;-16.22;72.22;99770.22;4656397;29;25185;-70
2023/01/02 13:07:18;;;;;;;8.00;3.97;;;;;;;-15.75;72.01;99836.59;4701740;29;20080;-69
2023/01/02 13:13:06;;;;;;;8.38;4.00;;;;;;;-15.43;71.46;99845.75;4689487;29;20184;-68
2023/01/02 13:16:07;;;;;;;7.28;3.42;;;;;;;-15.59;70.59;99840.31;4733532;28;20043;-69
2023/01/02 13:19:32;;;;;;;6.88;2.90;;;;;;;-15.93;68.57;99820.09;4841951;28;20089;-68
2023/01/02 13:22:45;;;;;;;5.75;2.78;;;;;;;-15.75;65.94;99846.59;4842064;28;20335;-69
2023/01/02 13:25:33;;;;;;;3.08;2.60;;;;;;;-15.75;66.09;99838.22;4852376;28;20053;-69
2023/01/02 13:28:18;;;;;;;4.30;3.03;;;;;;;-15.58;64.70;99852.06;4864806;28;20121;-68
2023/01/02 13:31:22;;;;;;;5.00;2.97;;;;;;;-16.04;64.73;99780.84;4871897;28;20047;-69
2023/01/02 13:34:28;;;;;;;7.47;2.78;;;;;;;-15.93;64.30;99840.13;4878190;28;20065;-68
2023/01/02 13:37:26;;;;;;;3.05;2.70;;;;;;;-15.90;64.89;99860.38;4801060;28;24776;-69
2023/01/02 13:40:38;;;;;;;2.60;2.40;;;;;;;-15.98;64.83;99852.25;4841642;28;20047;-69
2023/01/02 13:43:45;;;;;;;3.05;2.75;;;;;;;-16.13;64.90;99851.88;4810809;28;20057;-69
2023/01/02 13:49:44;;;;;;;5.43;3.05;;;;;;;-16.29;65.17;99858.91;4842521;28;20044;-67
2023/01/02 13:52:29;;;;;;;4.90;3.40;;;;;;;-16.19;65.45;99861.41;4853883;28;20065;-69
2023/01/02 13:58:55;;;;;;;4.38;3.08;;;;;;;-16.10;65.80;99872.19;4846355;28;20082;-68
2023/01/02 14:06:29;;;;;;;5.75;3.35;;;;;;;-16.13;65.68;99859.41;4773501;29;20478;-71
2023/01/02 14:09:30;;;;;;;4.68;3.88;;;;;;;-16.44;64.81;99862.66;4767921;29;20080;-69
2023/01/02 14:15:30;;;;;;;6.75;4.07;;;;;;;-16.97;64.76;99850.81;4754067;29;20099;-68
2023/01/02 14:18:32;;;;;;;110.00;24.98;;;;;;;-17.04;65.04;99863.53;4784737;28;20108;-69
2023/01/02 14:24:26;;;;;;;86.45;21.70;;;;;;;-17.14;67.78;99847.59;4790991;29;20062;-68
2023/01/02 14:30:51;;;;;;;49.13;13.23;;;;;;;-16.78;67.33;99855.72;4759804;29;20073;-70
2023/01/02 14:33:39;;;;;;;31.98;10.20;;;;;;;-16.73;67.05;99863.56;4782248;29;20055;-70
2023/01/02 14:36:35;;;;;;;25.05;8.52;;;;;;;-16.82;66.82;99862.81;4848762;28;20548;-70
2023/01/02 14:43:47;;;;;;;20.60;8.50;;;;;;;-16.97;66.91;99858.31;4823067;28;20553;-69
2023/01/02 14:46:40;;;;;;;21.90;7.40;;;;;;;-16.97;66.92;99860.81;4863517;28;20046;-65
2023/01/02 14:53:01;;;;;;;17.45;6.40;;;;;;;-17.16;66.75;99845.00;4797910;28;20039;-68
2023/01/02 14:55:41;;;;;;;14.20;5.75;;;;;;;-17.07;66.80;99865.78;4777180;29;20044;-67
2023/01/02 14:58:51;;;;;;;11.90;5.78;;;;;;;-17.08;66.99;99874.00;4825001;28;20051;-68
2023/01/02 15:01:30;;;;;;;9.23;4.60;;;;;;;-16.92;67.31;99855.31;4833492;28;20430;-68